createdAt,value
2023-03-19T00:02:42.131Z,49.53
2023-03-19T00:05:11.589Z,51.20
2023-03-19T00:07:40.797Z,52.45
2023-03-19T00:10:10.490Z,53.58
2023-03-19T00:12:39.889Z,54.45
2023-03-19T00:18:09.825Z,53.13
2023-03-19T00:20:56.731Z,55.50
2023-03-19T00:26:14.747Z,57.67
2023-03-19T00:28:44.269Z,57.30
2023-03-19T00:31:17.776Z,59.38
2023-03-19T00:36:36.685Z,55.45
2023-03-19T00:39:06.957Z,53.97
2023-03-19T00:41:36.203Z,52.55
2023-03-19T00:44:07.126Z,51.50
2023-03-19T00:49:38.259Z,50.15
2023-03-19T00:52:11.530Z,47.63
2023-03-19T00:54:40.798Z,48.00
2023-03-19T00:57:10.325Z,48.53
2023-03-19T00:59:39.590Z,46.80
2023-03-19T01:02:11.920Z,46.55
2023-03-19T01:04:41.332Z,45.80
2023-03-19T01:07:10.763Z,47.53
2023-03-19T01:09:40.472Z,47.53
2023-03-19T01:12:11.819Z,46.53
2023-03-19T01:23:18.157Z,50.13
2023-03-19T01:28:39.216Z,50.20
2023-03-19T01:34:16.997Z,49.88
2023-03-19T01:39:47.634Z,52.22
2023-03-19T01:49:02.410Z,50.28
2023-03-19T01:51:53.403Z,50.67
2023-03-19T02:00:45.844Z,51.38
2023-03-19T02:03:16.441Z,53.05
2023-03-19T02:11:41.927Z,59.85
2023-03-19T02:14:17.103Z,51.25
2023-03-19T02:16:57.230Z,52.13
2023-03-19T02:19:59.013Z,51.70
2023-03-19T02:22:37.731Z,52.30
2023-03-19T02:25:48.821Z,50.42
2023-03-19T02:28:37.258Z,50.60
2023-03-19T02:31:14.875Z,50.67
2023-03-19T02:34:30.729Z,53.10
2023-03-19T02:37:13.605Z,52.60
2023-03-19T02:48:33.345Z,48.80
2023-03-19T02:59:14.570Z,49.30
2023-03-19T03:01:53.569Z,48.65
2023-03-19T03:04:34.331Z,49.55
2023-03-19T03:07:14.455Z,47.28
2023-03-19T03:09:45.841Z,48.38
2023-03-19T03:12:17.122Z,47.45
2023-03-19T03:17:39.578Z,46.03
2023-03-19T03:22:57.004Z,46.40
2023-03-19T03:25:31.576Z,45.72
2023-03-19T03:28:01.037Z,44.05
2023-03-19T03:30:42.916Z,44.88
2023-03-19T03:33:18.263Z,44.88
2023-03-19T03:35:47.946Z,42.42
2023-03-19T03:38:17.600Z,44.28
2023-03-19T03:40:46.820Z,45.25
2023-03-19T03:43:16.828Z,45.65
2023-03-19T03:45:46.772Z,44.97
2023-03-19T03:48:17.119Z,44.03
2023-03-19T03:50:46.870Z,45.15
2023-03-19T03:53:17.056Z,44.92
2023-03-19T03:55:46.715Z,43.45
2023-03-19T03:58:15.953Z,43.97
2023-03-19T04:00:45.348Z,42.97
2023-03-19T04:03:14.664Z,44.42
2023-03-19T04:05:44.773Z,42.80
2023-03-19T04:08:13.982Z,41.65
2023-03-19T04:10:44.748Z,45.03
2023-03-19T04:13:14.837Z,41.72
2023-03-19T04:15:47.518Z,41.10
2023-03-19T04:18:16.743Z,41.30
2023-03-19T04:20:45.819Z,41.40
2023-03-19T04:23:14.934Z,41.17
2023-03-19T04:25:44.058Z,42.85
2023-03-19T04:28:13.119Z,41.17
2023-03-19T04:30:42.596Z,39.95
2023-03-19T04:33:13.051Z,43.58
2023-03-19T04:35:42.500Z,40.42
2023-03-19T04:38:11.785Z,40.53
2023-03-19T04:40:40.883Z,41.03
2023-03-19T04:43:09.972Z,39.97
2023-03-19T04:45:39.190Z,38.50
2023-03-19T04:48:09.661Z,38.38
2023-03-19T04:50:39.233Z,39.17
2023-03-19T04:53:09.018Z,39.25
2023-03-19T04:55:38.211Z,37.70
2023-03-19T04:58:07.704Z,37.20
2023-03-19T05:00:37.084Z,37.72
2023-03-19T05:03:06.377Z,38.22
2023-03-19T05:05:35.594Z,37.05
2023-03-19T05:08:05.291Z,37.20
2023-03-19T05:10:36.013Z,36.08
2023-03-19T05:13:06.863Z,35.75
2023-03-19T05:15:36.463Z,36.28
2023-03-19T05:18:06.198Z,36.42
2023-03-19T05:20:35.858Z,36.70
2023-03-19T05:23:05.694Z,36.10
2023-03-19T05:25:37.061Z,35.83
2023-03-19T05:28:08.244Z,35.25
2023-03-19T05:30:38.181Z,34.45
2023-03-19T05:33:08.123Z,35.13
2023-03-19T05:35:39.228Z,34.50
2023-03-19T05:38:09.222Z,33.92
2023-03-19T05:40:38.652Z,34.25
2023-03-19T05:43:07.882Z,35.10
2023-03-19T05:45:37.861Z,37.20
2023-03-19T05:48:07.512Z,33.15
2023-03-19T05:50:36.786Z,32.45
2023-03-19T05:53:05.997Z,32.13
2023-03-19T05:55:35.165Z,33.38
2023-03-19T05:58:04.363Z,31.90
2023-03-19T06:00:33.922Z,31.90
2023-03-19T06:03:03.553Z,27.45
2023-03-19T06:05:32.954Z,28.98
2023-03-19T06:08:02.241Z,27.08
2023-03-19T06:10:31.757Z,29.00
2023-03-19T06:13:01.413Z,28.15
2023-03-19T06:15:30.822Z,26.58
2023-03-19T06:18:00.208Z,25.52
2023-03-19T06:20:29.339Z,26.50
2023-03-19T06:22:58.462Z,26.52
2023-03-19T06:25:28.047Z,26.92
2023-03-19T06:27:57.139Z,26.77
2023-03-19T06:30:26.667Z,26.35
2023-03-19T06:32:55.773Z,25.75
2023-03-19T06:35:25.250Z,27.02
2023-03-19T06:37:54.494Z,25.60
2023-03-19T06:40:23.850Z,24.92
2023-03-19T06:42:53.301Z,27.48
2023-03-19T06:45:22.426Z,25.90
2023-03-19T06:47:53.480Z,26.98
2023-03-19T06:50:22.834Z,25.83
2023-03-19T06:52:52.040Z,25.20
2023-03-19T06:55:21.589Z,25.73
2023-03-19T06:57:52.242Z,24.83
2023-03-19T07:00:21.795Z,26.45
2023-03-19T07:02:50.961Z,26.80
2023-03-19T07:05:20.135Z,26.63
2023-03-19T07:07:49.257Z,26.40
2023-03-19T07:10:22.034Z,27.20
2023-03-19T07:12:51.541Z,38.97
2023-03-19T07:15:22.403Z,26.13
2023-03-19T07:17:51.728Z,25.50
2023-03-19T07:20:20.985Z,26.60
2023-03-19T07:22:52.750Z,26.25
2023-03-19T07:25:22.637Z,27.25
2023-03-19T07:27:53.540Z,26.48
2023-03-19T07:30:25.230Z,27.55
2023-03-19T07:32:54.363Z,26.02
2023-03-19T07:35:23.677Z,27.05
2023-03-19T07:37:52.856Z,28.63
2023-03-19T07:40:21.959Z,29.40
2023-03-19T07:42:51.148Z,29.00
2023-03-19T07:45:20.431Z,30.17
2023-03-19T07:47:52.519Z,29.42
2023-03-19T07:50:22.065Z,29.52
2023-03-19T07:52:55.108Z,29.88
2023-03-19T07:55:24.324Z,30.23
2023-03-19T07:57:53.670Z,29.60
2023-03-19T08:00:23.135Z,31.08
2023-03-19T08:02:52.358Z,30.33
2023-03-19T08:05:21.614Z,29.92
2023-03-19T08:07:52.182Z,29.52
2023-03-19T08:10:21.753Z,28.85
2023-03-19T08:12:51.897Z,29.70
2023-03-19T08:15:21.120Z,30.58
2023-03-19T08:17:50.834Z,28.92
2023-03-19T08:20:20.392Z,31.38
2023-03-19T08:22:52.102Z,30.27
2023-03-19T08:25:21.527Z,29.50
2023-03-19T08:27:51.985Z,29.50
2023-03-19T08:30:21.654Z,28.45
2023-03-19T08:32:51.544Z,28.92
2023-03-19T08:35:21.370Z,29.10
2023-03-19T08:37:50.568Z,29.00
2023-03-19T08:40:20.114Z,28.90
2023-03-19T08:42:49.976Z,28.40
2023-03-19T08:45:19.525Z,29.13
2023-03-19T08:47:50.191Z,29.60
2023-03-19T08:50:20.694Z,29.80
2023-03-19T08:52:49.953Z,27.35
2023-03-19T08:55:20.052Z,28.55
2023-03-19T08:57:49.278Z,28.08
2023-03-19T09:00:20.516Z,28.02
2023-03-19T09:02:50.098Z,27.17
2023-03-19T09:05:23.323Z,28.73
2023-03-19T09:07:53.864Z,27.40
2023-03-19T09:10:23.130Z,29.42
2023-03-19T09:12:52.462Z,28.35
2023-03-19T09:15:21.673Z,27.35
2023-03-19T09:17:50.942Z,27.08
2023-03-19T09:20:20.653Z,27.65
2023-03-19T09:22:49.993Z,26.83
2023-03-19T09:25:19.370Z,25.50
2023-03-19T09:27:48.630Z,27.08
2023-03-19T09:30:18.008Z,27.05
2023-03-19T09:32:47.465Z,28.10
2023-03-19T09:35:16.851Z,25.88
2023-03-19T09:37:46.047Z,26.70
2023-03-19T09:40:45.040Z,26.65
2023-03-19T09:43:26.522Z,25.85
2023-03-19T09:45:55.855Z,26.00
2023-03-19T09:48:53.587Z,25.50
2023-03-19T09:52:11.480Z,26.88
2023-03-19T09:54:49.396Z,26.58
2023-03-19T09:59:50.043Z,26.95
2023-03-19T10:02:43.953Z,27.73
2023-03-19T10:05:28.174Z,27.70
2023-03-19T10:08:40.371Z,28.17
2023-03-19T10:11:28.769Z,28.48
2023-03-19T10:14:18.034Z,30.73
2023-03-19T10:16:52.442Z,28.42
2023-03-19T10:19:40.712Z,28.27
2023-03-19T10:22:18.853Z,28.15
2023-03-19T10:27:27.452Z,30.33
2023-03-19T10:29:57.768Z,31.92
2023-03-19T10:33:27.301Z,30.10
2023-03-19T10:36:16.392Z,31.63
2023-03-19T10:38:46.445Z,31.25
2023-03-19T10:41:42.601Z,31.85
2023-03-19T10:44:33.301Z,32.17
2023-03-19T10:47:14.449Z,31.52
2023-03-19T10:49:44.405Z,30.50
2023-03-19T10:52:38.217Z,30.98
2023-03-19T10:55:18.858Z,32.25
2023-03-19T10:57:53.248Z,32.20
2023-03-19T11:00:30.850Z,32.85
2023-03-19T11:03:00.412Z,33.05
2023-03-19T11:05:33.189Z,32.42
2023-03-19T11:08:35.031Z,31.92
2023-03-19T11:11:05.234Z,31.85
2023-03-19T11:13:37.926Z,31.17
2023-03-19T11:16:07.725Z,31.60
2023-03-19T11:18:42.136Z,32.22
2023-03-19T11:21:25.798Z,32.45
2023-03-19T11:24:03.797Z,33.03
2023-03-19T11:29:07.133Z,33.65
2023-03-19T11:31:50.611Z,35.05
2023-03-19T11:34:49.124Z,33.65
2023-03-19T11:37:59.482Z,33.75
2023-03-19T11:40:53.544Z,34.03
2023-03-19T11:43:58.471Z,32.13
2023-03-19T11:46:47.166Z,32.88
2023-03-19T11:49:43.458Z,33.42
2023-03-19T11:52:41.632Z,31.98
2023-03-19T11:55:50.631Z,32.40
2023-03-19T11:58:58.977Z,33.08
2023-03-19T12:01:58.443Z,34.10
2023-03-19T12:04:57.496Z,38.65
2023-03-19T12:08:02.863Z,43.42
2023-03-19T12:10:43.991Z,45.58
2023-03-19T12:13:49.679Z,42.45
2023-03-19T12:16:37.012Z,43.72
2023-03-19T12:19:49.693Z,39.85
2023-03-19T12:22:55.766Z,38.03
2023-03-19T12:26:40.154Z,41.50
2023-03-19T12:29:42.129Z,37.80
2023-03-19T12:32:25.541Z,36.40
2023-03-19T12:35:12.812Z,37.60
2023-03-19T12:37:55.130Z,37.37
2023-03-19T12:40:49.576Z,36.75
2023-03-19T12:43:48.701Z,37.25
2023-03-19T12:46:45.512Z,38.63
2023-03-19T12:49:20.123Z,37.95
2023-03-19T12:52:05.393Z,37.20
2023-03-19T12:54:43.108Z,39.50
2023-03-19T12:57:23.762Z,36.80
2023-03-19T13:00:19.202Z,38.80
2023-03-19T13:03:21.731Z,35.90
2023-03-19T13:06:36.630Z,38.08
2023-03-19T13:09:34.358Z,37.60
2023-03-19T13:12:24.873Z,37.88
2023-03-19T13:15:06.574Z,39.00
2023-03-19T13:18:05.948Z,39.35
2023-03-19T13:21:11.387Z,37.90
2023-03-19T13:23:43.990Z,35.40
2023-03-19T13:26:15.519Z,35.72
2023-03-19T13:29:02.502Z,38.03
2023-03-19T13:31:37.779Z,38.17
2023-03-19T13:34:30.843Z,38.45
2023-03-19T13:37:19.269Z,36.13
2023-03-19T13:39:50.676Z,34.47
2023-03-19T13:42:44.780Z,34.40
2023-03-19T13:45:30.782Z,34.25
2023-03-19T13:48:46.323Z,32.28
2023-03-19T13:51:24.877Z,31.58
2023-03-19T13:54:24.097Z,33.30
2023-03-19T13:57:02.579Z,33.00
2023-03-19T13:59:37.183Z,31.67
2023-03-19T14:02:26.490Z,32.13
2023-03-19T14:05:36.737Z,31.05
2023-03-19T14:08:30.514Z,32.72
2023-03-19T14:11:02.998Z,32.00
2023-03-19T14:13:44.229Z,31.88
2023-03-19T14:16:21.056Z,32.33
2023-03-19T14:18:55.913Z,32.58
2023-03-19T14:21:59.357Z,35.60
2023-03-19T14:25:06.034Z,32.45
2023-03-19T14:27:44.840Z,33.97
2023-03-19T14:30:41.734Z,34.47
2023-03-19T14:33:28.029Z,34.05
2023-03-19T14:36:04.026Z,34.03
2023-03-19T14:38:48.917Z,34.85
2023-03-19T14:41:23.753Z,36.72
2023-03-19T14:43:53.599Z,35.20
2023-03-19T14:47:13.756Z,37.40
2023-03-19T14:50:03.919Z,37.22
2023-03-19T14:53:05.918Z,36.97
2023-03-19T14:55:39.834Z,37.83
2023-03-19T14:58:14.582Z,37.60
2023-03-19T15:00:56.986Z,39.90
2023-03-19T15:03:40.109Z,40.58
2023-03-19T15:06:15.048Z,39.45
2023-03-19T15:08:44.889Z,39.45
2023-03-19T15:11:19.699Z,41.60
2023-03-19T15:13:51.897Z,39.15
2023-03-19T15:16:58.655Z,35.20
2023-03-19T15:19:33.702Z,34.42
2023-03-19T15:22:23.544Z,33.88
2023-03-19T15:24:53.103Z,35.17
2023-03-19T15:27:28.562Z,35.03
2023-03-19T15:30:08.866Z,37.67
2023-03-19T15:33:04.437Z,34.08
2023-03-19T15:35:37.765Z,33.65
2023-03-19T15:38:14.718Z,34.25
2023-03-19T15:40:46.464Z,36.35
2023-03-19T15:43:16.490Z,38.70
2023-03-19T15:45:52.511Z,37.72
2023-03-19T15:48:37.824Z,35.55
2023-03-19T15:51:11.546Z,35.58
2023-03-19T15:53:41.796Z,35.83
2023-03-19T15:56:15.170Z,35.13
2023-03-19T15:58:53.059Z,35.67
2023-03-19T16:01:25.934Z,34.42
2023-03-19T16:04:17.313Z,34.85
2023-03-19T16:06:51.793Z,34.22
2023-03-19T16:09:31.077Z,33.72
2023-03-19T16:12:06.207Z,33.47
2023-03-19T16:14:43.298Z,34.50
2023-03-19T16:17:21.372Z,35.50
2023-03-19T16:20:03.593Z,35.65
2023-03-19T16:22:34.632Z,36.88
2023-03-19T16:25:07.903Z,36.47
2023-03-19T16:27:42.099Z,35.92
2023-03-19T16:30:30.902Z,35.88
2023-03-19T16:33:06.602Z,37.30
2023-03-19T16:35:38.600Z,37.78
2023-03-19T16:38:17.921Z,40.15
2023-03-19T16:40:50.403Z,42.85
2023-03-19T16:43:35.386Z,43.08
2023-03-19T16:46:13.457Z,46.03
2023-03-19T16:48:42.731Z,46.83
2023-03-19T16:51:22.472Z,45.42
2023-03-19T16:53:51.875Z,47.42
2023-03-19T16:56:21.940Z,44.83
2023-03-19T16:58:51.328Z,47.00
2023-03-19T17:01:25.620Z,48.95
2023-03-19T17:03:55.675Z,46.20
2023-03-19T17:06:25.044Z,45.05
2023-03-19T17:08:54.206Z,42.67
2023-03-19T17:11:30.547Z,42.85
2023-03-19T17:14:00.931Z,41.85
2023-03-19T17:16:31.258Z,42.28
2023-03-19T17:19:00.948Z,43.85
2023-03-19T17:21:34.660Z,42.10
2023-03-19T17:24:33.016Z,45.42
2023-03-19T17:27:04.995Z,43.58
2023-03-19T17:29:34.892Z,44.65
2023-03-19T17:32:05.739Z,45.80
2023-03-19T17:34:36.809Z,47.40
2023-03-19T17:37:12.265Z,48.58
2023-03-19T17:39:43.394Z,47.05
2023-03-19T17:42:23.732Z,45.85
2023-03-19T17:44:53.345Z,45.13
2023-03-19T17:47:23.020Z,44.85
2023-03-19T17:49:52.275Z,45.88
2023-03-19T17:52:22.158Z,43.45
2023-03-19T17:54:51.327Z,43.40
2023-03-19T17:57:20.466Z,44.38
2023-03-19T17:59:49.581Z,41.28
2023-03-19T18:02:32.613Z,41.55
2023-03-19T18:05:01.779Z,39.38
2023-03-19T18:07:30.999Z,39.15
2023-03-19T18:10:00.202Z,40.10
2023-03-19T18:12:29.409Z,38.25
2023-03-19T18:14:59.189Z,38.53
2023-03-19T18:17:28.433Z,38.08
2023-03-19T18:19:57.714Z,36.50
2023-03-19T18:22:28.274Z,37.22
2023-03-19T18:24:59.067Z,36.60
2023-03-19T18:27:28.226Z,35.58
2023-03-19T18:29:57.373Z,35.30
2023-03-19T18:32:33.597Z,37.20
2023-03-19T18:35:04.437Z,36.83
2023-03-19T18:37:35.800Z,34.50
2023-03-19T18:40:05.798Z,35.90
2023-03-19T18:42:34.913Z,34.63
2023-03-19T18:45:04.125Z,37.22
2023-03-19T18:47:33.642Z,34.05
2023-03-19T18:50:02.865Z,33.47
2023-03-19T18:52:32.202Z,34.55
2023-03-19T18:55:01.395Z,32.50
2023-03-19T18:57:30.611Z,33.13
2023-03-19T19:00:01.279Z,33.33
2023-03-19T19:02:39.216Z,31.90
2023-03-19T19:05:08.676Z,32.42
2023-03-19T19:07:37.777Z,30.92
2023-03-19T19:10:08.509Z,32.05
2023-03-19T19:12:40.373Z,32.17
2023-03-19T19:15:29.053Z,31.75
2023-03-19T19:17:59.008Z,33.35
2023-03-19T19:20:30.870Z,33.25
2023-03-19T19:23:00.023Z,33.70
2023-03-19T19:25:31.068Z,33.75
2023-03-19T19:28:10.008Z,33.70
2023-03-19T19:30:39.717Z,34.53
2023-03-19T19:33:22.028Z,34.80
2023-03-19T19:35:53.047Z,34.78
2023-03-19T19:38:22.495Z,33.75
2023-03-19T19:40:55.376Z,32.00
2023-03-19T19:43:30.265Z,32.25
2023-03-19T19:46:01.268Z,27.55
2023-03-19T19:48:32.516Z,28.45
2023-03-19T19:51:02.147Z,27.00
2023-03-19T19:53:31.925Z,28.08
2023-03-19T19:56:02.447Z,26.38
2023-03-19T19:58:34.941Z,27.05
2023-03-19T20:01:04.780Z,25.30
2023-03-19T20:03:36.053Z,25.88
2023-03-19T20:06:05.480Z,27.40
2023-03-19T20:08:34.626Z,26.23
2023-03-19T20:11:04.960Z,25.77
2023-03-19T20:13:38.794Z,25.80
2023-03-19T20:16:08.511Z,26.27
2023-03-19T20:18:40.535Z,25.63
2023-03-19T20:21:09.697Z,25.20
2023-03-19T20:23:38.819Z,24.35
2023-03-19T20:26:08.170Z,24.27
2023-03-19T20:28:37.425Z,24.10
2023-03-19T20:31:07.262Z,24.17
2023-03-19T20:33:38.308Z,24.38
2023-03-19T20:36:08.031Z,24.00
2023-03-19T20:38:37.725Z,24.75
2023-03-19T20:41:21.166Z,23.23
2023-03-19T20:43:51.768Z,24.10
2023-03-19T20:46:24.099Z,23.45
2023-03-19T20:48:53.415Z,23.42
2023-03-19T20:51:27.017Z,24.40
2023-03-19T20:53:56.384Z,24.77
2023-03-19T20:56:29.033Z,22.98
2023-03-19T20:58:58.232Z,23.73
2023-03-19T21:01:27.686Z,24.40
2023-03-19T21:03:57.023Z,24.00
2023-03-19T21:06:27.037Z,23.13
2023-03-19T21:09:00.568Z,24.50
2023-03-19T21:11:43.162Z,24.65
2023-03-19T21:14:17.199Z,24.13
2023-03-19T21:16:46.384Z,25.25
2023-03-19T21:19:15.469Z,27.38
2023-03-19T21:21:45.026Z,27.90
2023-03-19T21:24:18.833Z,25.48
2023-03-19T21:26:48.713Z,27.77
2023-03-19T21:29:34.408Z,27.73
2023-03-19T21:32:03.582Z,27.08
2023-03-19T21:34:32.740Z,27.50
2023-03-19T21:37:02.131Z,26.13
2023-03-19T21:39:32.341Z,25.70
2023-03-19T21:42:08.964Z,27.17
2023-03-19T21:44:39.881Z,27.83
2023-03-19T21:47:19.750Z,27.95
2023-03-19T21:49:49.581Z,27.42
2023-03-19T21:52:24.534Z,27.15
2023-03-19T21:54:53.688Z,27.65
2023-03-19T21:57:22.828Z,25.80
2023-03-19T21:59:51.949Z,24.95
2023-03-19T22:02:24.236Z,25.98
2023-03-19T22:04:53.386Z,24.85
2023-03-19T22:07:22.605Z,23.80
2023-03-19T22:09:51.722Z,23.73
2023-03-19T22:12:30.143Z,23.10
2023-03-19T22:17:30.168Z,25.42
2023-03-19T22:19:59.754Z,24.42
2023-03-19T22:22:28.880Z,23.63
2023-03-19T22:25:00.209Z,24.65
2023-03-19T22:27:29.490Z,23.55
2023-03-19T22:30:02.142Z,25.10
2023-03-19T22:32:31.424Z,24.90
2023-03-19T22:35:02.665Z,24.83
2023-03-19T22:37:33.260Z,24.80
2023-03-19T22:40:02.413Z,25.83
2023-03-19T22:42:31.889Z,26.10
2023-03-19T22:45:01.185Z,25.23
2023-03-19T22:47:31.531Z,24.15
2023-03-19T22:50:01.087Z,24.23
2023-03-19T22:52:30.720Z,25.17
2023-03-19T22:54:59.889Z,24.65
2023-03-19T22:57:29.041Z,25.35
2023-03-19T22:59:58.154Z,24.27
2023-03-19T23:02:28.146Z,25.30
2023-03-19T23:04:57.268Z,25.88
2023-03-19T23:07:26.357Z,22.70
2023-03-19T23:09:56.106Z,23.92
2023-03-19T23:12:25.197Z,30.80
2023-03-19T23:14:54.772Z,28.60
2023-03-19T23:17:23.934Z,26.05
2023-03-19T23:19:55.401Z,27.58
2023-03-19T23:22:24.545Z,29.00
2023-03-19T23:24:53.711Z,25.08
2023-03-19T23:27:37.906Z,25.80
2023-03-19T23:30:07.854Z,27.02
2023-03-19T23:32:37.197Z,25.73
2023-03-19T23:35:18.760Z,29.23
2023-03-19T23:37:48.731Z,30.27
2023-03-19T23:40:20.565Z,41.33
2023-03-19T23:42:54.831Z,37.35
2023-03-19T23:45:30.574Z,35.10
2023-03-19T23:48:16.600Z,29.42
2023-03-19T23:50:48.000Z,30.13
2023-03-19T23:53:25.258Z,32.45
2023-03-19T23:56:05.691Z,33.08
2023-03-19T23:58:41.294Z,32.00
